WetterOnline ( https://www.wetteronline.de )

Wetter aktuell Malsch

Aktuelles Wetter: Rheinstetten (116m)

6-stündlich | Neueste Meldungen
Ortszeit Temperatur Wetter
Di, 29.09. 14:00 13.3° C wolkig
Di, 29.09. 8:00 12.0° C Sprühregen
Di, 29.09. 2:00 11.4° C bedeckt
Mo, 28.09. 20:00 13.2° C wolkig
Mo, 28.09. 14:00 15.0° C bedeckt
Mo, 28.09. 8:00 3.2° C wolkig
Mo, 28.09. 2:00 4.3° C wolkenlos
So, 27.09. 20:00 11.8° C wolkig
Ortszeit Temperatur Wetter
Di, 29.09. 19:00 14.2° C bedeckt
Di, 29.09. 18:50 14.2° C bedeckt
Di, 29.09. 18:40 14.3° C bedeckt
Di, 29.09. 18:30 14.3° C bedeckt
Di, 29.09. 18:20 14.3° C bedeckt
Di, 29.09. 18:10 14.4° C bedeckt
Di, 29.09. 18:00 14.3° C bewölkt
Di, 29.09. 17:30 14.2° C bewölkt
Di, 29.09. 17:00 14.2° C bedeckt
Di, 29.09. 16:30 14.4° C bewölkt
Di, 29.09. 16:00 14.4° C bewölkt
Ortszeit Relative Feuchte Sichtweite
Di, 29.09. 14:00 85% 55 km
Di, 29.09. 8:00 97% 3.2 km
Di, 29.09. 2:00 89% >70 km
Mo, 28.09. 20:00 74% >70 km
Mo, 28.09. 14:00 54% 65 km
Mo, 28.09. 8:00 97% 40 km
Mo, 28.09. 2:00 97% >70 km
So, 27.09. 20:00 69% >70 km
Ortszeit Relative Feuchte Sichtweite
Di, 29.09. 19:00 78% 55 km
Di, 29.09. 18:50 78% -
Di, 29.09. 18:40 78% -
Di, 29.09. 18:30 79% 50 km
Di, 29.09. 18:20 79% -
Di, 29.09. 18:10 78% -
Di, 29.09. 18:00 78% 45 km
Di, 29.09. 17:30 79% 50 km
Di, 29.09. 17:00 78% 50 km
Di, 29.09. 16:30 77% 55 km
Di, 29.09. 16:00 77% 45 km
Ortszeit Niederschlagsmenge Niederschlagsart
Di, 29.09. 14:00 0.1 l/m2 in 6 Std. Sprühregen
Di, 29.09. 8:00 0.4 l/m2 in 12 Std. Regen
Di, 29.09. 2:00 0.0 l/m2 in 6 Std. -
Mo, 28.09. 20:00 0.0 l/m2 in 12 Std. -
Mo, 28.09. 14:00 0.0 l/m2 in 6 Std. -
Mo, 28.09. 8:00 0.0 l/m2 in 12 Std. -
Mo, 28.09. 2:00 0.0 l/m2 in 6 Std. -
So, 27.09. 20:00 0.1 l/m2 in 12 Std. -
Ortszeit Niederschlagsmenge Niederschlagsart
Di, 29.09. 19:00 0.0 l/m2 in 1 Std. -
Di, 29.09. 18:50 keine Meldung -
Di, 29.09. 18:40 keine Meldung -
Di, 29.09. 18:30 0.0 l/m2 in 1 Std. -
Di, 29.09. 18:20 keine Meldung -
Di, 29.09. 18:10 keine Meldung -
Di, 29.09. 18:00 0.0 l/m2 in 1 Std. -
Di, 29.09. 17:30 0.0 l/m2 in 1 Std. -
Di, 29.09. 17:00 0.0 l/m2 in 1 Std. -
Di, 29.09. 16:30 0.0 l/m2 in 1 Std. -
Di, 29.09. 16:00 0.0 l/m2 in 1 Std. -
Ortszeit Stärke Spitze Richtung
km/h Bft. km/h Grad Sektor
Di, 29.09. 14:00 20 4 35 230° SW
Di, 29.09. 8:00 14 3 25 230° SW
Di, 29.09. 2:00 0 0 18 - -
Mo, 28.09. 20:00 7 2 22 240° SW
Mo, 28.09. 14:00 7 2 18 200° S
Mo, 28.09. 8:00 6 1 7 130° SO
Mo, 28.09. 2:00 4 1 7 100° O
So, 27.09. 20:00 6 1 33 200° S
Ortszeit Stärke Spitze Richtung
km/h Bft. km/h Grad Sektor
Di, 29.09. 19:00 14 3 25 230° SW
Di, 29.09. 18:50 14 3 - 230° SW
Di, 29.09. 18:40 17 3 - 230° SW
Di, 29.09. 18:30 14 3 22 230° SW
Di, 29.09. 18:20 14 3 - 230° SW
Di, 29.09. 18:10 14 3 - 230° SW
Di, 29.09. 18:00 15 3 24 220° SW
Di, 29.09. 17:30 13 3 24 230° SW
Di, 29.09. 17:00 22 4 36 230° SW
Di, 29.09. 16:30 22 4 36 230° SW
Di, 29.09. 16:00 18 3 32 230° SW
Ortszeit Untergrenze Bedeckung Gattung
total tief tief mittel hoch
Di, 29.09. 14:00 510 m 6/8 6/8 - - -
Di, 29.09. 8:00 120 m 7/8 7/8 - - -
Di, 29.09. 2:00 1080 m 8/8 8/8 - - -
Mo, 28.09. 20:00 1800 m 6/8 6/8 - - -
Mo, 28.09. 14:00 4800 m 8/8 8/8 - - -
Mo, 28.09. 8:00 30 m 5/8 5/8 - - -
Mo, 28.09. 2:00 - 0/8 0/8 - - -
So, 27.09. 20:00 1410 m 5/8 5/8 - - -
Ortszeit Bedeckungsgrad in Achtel und Wolkenuntergrenze
Di, 29.09. 19:00 2(870m) 5(1350m) 8(1500m)
Di, 29.09. 18:50 2(870m) 5(1350m) 8(1500m)
Di, 29.09. 18:40 3(840m) 8(1500m)
Di, 29.09. 18:30 2(840m) 4(1200m) 8(1500m)
Di, 29.09. 18:20 2(840m) 4(1200m) 8(1500m)
Di, 29.09. 18:10 4(840m) 6(960m) 8(1500m)
Di, 29.09. 18:00 5(840m) 7(1320m) 7(1500m)
Di, 29.09. 17:30 2(750m) 7(1050m)
Di, 29.09. 17:00 7(780m) 8(960m)
Di, 29.09. 16:30 3(660m) 4(840m) 7(1020m)
Di, 29.09. 16:00 5(750m) 7(1020m) 7(990m)
Ortszeit Luftdruck NN (hPa) Tendenz (hPa in 3 Std.)
Di, 29.09. 14:00 1019 + 0,7
Di, 29.09. 8:00 1016 + 1,0
Di, 29.09. 2:00 1015 - 0,1
Mo, 28.09. 20:00 1013 + 1,7
Mo, 28.09. 14:00 1011 - 0,3
Mo, 28.09. 8:00 1011 + 0,5
Mo, 28.09. 2:00 1010 0,0
So, 27.09. 20:00 1007 + 2,2
Ortszeit Luftdruck NN (hPa) Tendenz (hPa in 3 Std.)
Di, 29.09. 19:00 1019 + 0,4
Di, 29.09. 18:50 1019 keine Meldung
Di, 29.09. 18:40 1019 keine Meldung
Di, 29.09. 18:30 1019 + 0,2
Di, 29.09. 18:20 1019 keine Meldung
Di, 29.09. 18:10 1019 keine Meldung
Di, 29.09. 18:00 1019 + 0,1
Di, 29.09. 17:30 1019 - 0,2
Di, 29.09. 17:00 1019 - 0,1
Di, 29.09. 16:30 1019 - 0,3
Di, 29.09. 16:00 1019 0,0
Ortszeit Schneehöhe (cm)
Di, 29.09. 14:00 -
Di, 29.09. 8:00 -
Di, 29.09. 2:00 -
Mo, 28.09. 20:00 -
Mo, 28.09. 14:00 -
Mo, 28.09. 8:00 -
Mo, 28.09. 2:00 -
So, 27.09. 20:00 -
Ortszeit Schneehöhe (cm)
Di, 29.09. 19:00 -
Di, 29.09. 18:50 -
Di, 29.09. 18:40 -
Di, 29.09. 18:30 -
Di, 29.09. 18:20 -
Di, 29.09. 18:10 -
Di, 29.09. 18:00 -
Di, 29.09. 17:30 -
Di, 29.09. 17:00 -
Di, 29.09. 16:30 -
Di, 29.09. 16:00 -
Link zu dieser Seite / Seite empfehlen

Das Wetter in ...